< < Back
Terminal Aerodrome Forecast


Current Version              Previous Versions:   1  2  3  4  5  6  7  8  9  

Terminal Aerodrome Forecast

383
FTUS44 KBMX 201100
TAFTCL
TAF
KTCL 201136Z 2012/2112 35006KT P6SM BKN045
     FM201400 36005KT P6SM SCT050
     FM201700 36005KT P6SM BKN060
     FM211000 02002KT 5SM BR SCT008 BKN040=



Latest METAR

188
SAUS70 KWBC 201200 RRR
MTRTCL
METAR KTCL 201153Z AUTO 04005KT 7SM OVC075 05/03 A3020 RMK AO2 SLP228
60000 70017 T00500028 10056 20050 51007


USA.gov is the U.S. government's official web portal to all federal, state and local government web resources and services.